createdAt,value
2018-08-13T00:00:11.461Z,23.57
2018-08-13T00:05:14.708Z,18.83
2018-08-13T00:10:17.980Z,10.43
2018-08-13T00:15:21.304Z,6.53
2018-08-13T00:20:24.571Z,6.27
2018-08-13T00:25:27.917Z,4.70
2018-08-13T00:30:31.147Z,4.57
2018-08-13T00:35:34.427Z,6.93
2018-08-13T00:40:37.763Z,6.30
2018-08-13T00:45:41.033Z,6.17
2018-08-13T00:50:44.314Z,5.60
2018-08-13T00:55:47.591Z,5.10
2018-08-13T01:00:50.879Z,4.67
2018-08-13T01:05:54.160Z,3.80
2018-08-13T01:10:57.423Z,3.67
2018-08-13T01:16:00.673Z,4.10
2018-08-13T01:21:03.969Z,4.17
2018-08-13T01:26:07.232Z,4.97
2018-08-13T01:31:10.488Z,5.50
2018-08-13T01:36:13.732Z,5.73
2018-08-13T01:41:17.048Z,5.90
2018-08-13T01:46:20.340Z,5.73
2018-08-13T01:51:23.583Z,5.37
2018-08-13T01:56:26.849Z,5.00
2018-08-13T02:01:30.278Z,5.10
2018-08-13T02:06:33.492Z,5.30
2018-08-13T02:11:36.805Z,5.03
2018-08-13T02:16:40.081Z,5.30
2018-08-13T02:21:43.372Z,5.00
2018-08-13T02:26:46.659Z,5.50
2018-08-13T02:31:50.201Z,5.63
2018-08-13T02:36:53.527Z,4.73
2018-08-13T02:41:56.513Z,5.90
2018-08-13T02:46:59.769Z,5.80
2018-08-13T02:52:03.066Z,6.13
2018-08-13T02:57:06.703Z,5.50
2018-08-13T03:02:09.975Z,5.80
2018-08-13T03:07:13.247Z,6.37
2018-08-13T03:12:16.510Z,6.27
2018-08-13T03:17:28.124Z,6.07
2018-08-13T03:22:31.980Z,5.40
2018-08-13T03:27:35.271Z,5.77
2018-08-13T03:32:38.735Z,5.50
2018-08-13T03:37:42.002Z,5.93
2018-08-13T03:42:45.266Z,6.03
2018-08-13T03:47:48.524Z,5.80
2018-08-13T03:52:51.795Z,6.23
2018-08-13T03:57:55.088Z,6.70
2018-08-13T04:02:58.369Z,6.40
2018-08-13T04:08:01.779Z,6.10
2018-08-13T04:13:05.142Z,6.87
2018-08-13T04:18:08.870Z,6.50
2018-08-13T04:23:12.119Z,7.03
2018-08-13T04:28:15.420Z,7.53
2018-08-13T04:33:18.686Z,7.43
2018-08-13T04:38:21.970Z,7.17
2018-08-13T04:43:25.248Z,6.83
2018-08-13T04:48:28.506Z,7.03
2018-08-13T04:53:31.773Z,6.70
2018-08-13T04:58:35.024Z,6.97
2018-08-13T05:03:38.275Z,5.83
2018-08-13T05:08:41.551Z,6.00
2018-08-13T05:13:44.826Z,5.27
2018-08-13T05:18:48.110Z,5.40
2018-08-13T05:23:51.402Z,5.40
2018-08-13T05:28:54.655Z,4.50
2018-08-13T05:33:57.963Z,4.50
2018-08-13T05:39:01.232Z,4.53
2018-08-13T05:44:04.591Z,4.03
2018-08-13T05:49:07.863Z,4.13
2018-08-13T05:54:11.127Z,4.97
2018-08-13T05:59:14.400Z,5.00
2018-08-13T06:04:17.648Z,5.13
2018-08-13T06:09:20.926Z,5.20
2018-08-13T06:14:24.215Z,5.90
2018-08-13T06:19:27.483Z,5.30
2018-08-13T06:24:30.766Z,5.00
2018-08-13T06:29:34.050Z,4.97
2018-08-13T06:34:37.324Z,5.20
2018-08-13T06:39:40.598Z,4.97
2018-08-13T06:44:43.861Z,5.37
2018-08-13T06:49:47.131Z,5.43
2018-08-13T06:54:50.391Z,4.70
2018-08-13T06:59:53.660Z,5.30
2018-08-13T07:04:57.027Z,5.10
2018-08-13T07:10:00.304Z,5.50
2018-08-13T07:15:03.588Z,4.60
2018-08-13T07:20:09.140Z,4.40
2018-08-13T07:25:12.420Z,3.62
2018-08-13T07:30:15.704Z,4.10
2018-08-13T07:35:18.981Z,2.87
2018-08-13T07:40:22.263Z,3.75
2018-08-13T07:45:25.549Z,3.75
2018-08-13T07:50:28.866Z,3.27
2018-08-13T07:55:32.135Z,3.15
2018-08-13T08:00:35.449Z,3.08
2018-08-13T08:05:38.724Z,3.05
2018-08-13T08:10:41.987Z,3.25
2018-08-13T08:15:45.293Z,3.22
2018-08-13T08:20:48.575Z,2.80
2018-08-13T08:25:51.843Z,2.50
2018-08-13T08:30:55.145Z,2.92
2018-08-13T08:35:58.402Z,2.52
2018-08-13T08:41:01.725Z,2.60
2018-08-13T08:46:05.166Z,2.67
2018-08-13T08:51:08.351Z,2.50
2018-08-13T08:56:11.631Z,2.40
2018-08-13T09:01:15.397Z,2.25
2018-08-13T09:06:18.664Z,2.37
2018-08-13T09:11:21.932Z,2.55
2018-08-13T09:16:25.451Z,2.17
2018-08-13T09:21:31.240Z,2.60
2018-08-13T09:26:45.651Z,2.20
2018-08-13T09:32:11.863Z,2.30
2018-08-13T09:37:16.035Z,2.50
2018-08-13T09:42:19.301Z,2.33
2018-08-13T09:47:22.555Z,2.60
2018-08-13T09:52:25.854Z,2.27
2018-08-13T09:57:29.133Z,2.40
2018-08-13T10:02:32.410Z,2.30
2018-08-13T10:07:35.668Z,2.40
2018-08-13T10:12:39.565Z,2.25
2018-08-13T10:17:42.877Z,1.90
2018-08-13T10:22:46.398Z,1.57
2018-08-13T10:27:49.647Z,1.42
2018-08-13T10:32:52.940Z,1.65
2018-08-13T10:37:56.204Z,2.22
2018-08-13T10:42:59.480Z,1.67
2018-08-13T10:48:02.728Z,1.55
2018-08-13T10:53:06.005Z,1.30
2018-08-13T10:58:09.330Z,1.67
2018-08-13T11:03:12.652Z,2.15
2018-08-13T11:08:15.898Z,1.95
2018-08-13T11:13:19.184Z,1.32
2018-08-13T11:18:22.462Z,1.77
2018-08-13T11:23:25.748Z,2.08
2018-08-13T11:28:29.023Z,1.90
2018-08-13T11:33:32.313Z,2.30
2018-08-13T11:38:35.561Z,1.70
2018-08-13T11:43:38.831Z,1.70
2018-08-13T11:48:42.087Z,1.90
2018-08-13T11:53:45.384Z,1.47
2018-08-13T11:58:48.651Z,1.30
2018-08-13T12:03:52.101Z,1.62
2018-08-13T12:08:55.404Z,1.57
2018-08-13T12:13:58.728Z,2.25
2018-08-13T12:19:01.991Z,2.12
2018-08-13T12:24:05.340Z,1.80
2018-08-13T12:29:08.650Z,1.87
2018-08-13T12:34:11.975Z,1.62
2018-08-13T12:39:15.250Z,1.95
2018-08-13T12:44:18.540Z,2.27
2018-08-13T12:49:21.842Z,1.98
2018-08-13T12:54:25.114Z,1.60
2018-08-13T12:59:28.384Z,1.90
2018-08-13T13:04:31.643Z,2.05
2018-08-13T13:09:34.938Z,2.00
2018-08-13T13:14:38.313Z,2.15
2018-08-13T13:19:41.564Z,2.00
2018-08-13T13:24:44.842Z,2.47
2018-08-13T13:29:48.179Z,2.12
2018-08-13T13:34:51.469Z,2.17
2018-08-13T13:39:54.748Z,2.05
2018-08-13T13:44:58.083Z,2.30
2018-08-13T13:50:01.370Z,2.27
2018-08-13T13:55:05.223Z,2.12
2018-08-13T14:00:16.384Z,2.10
2018-08-13T14:05:19.964Z,2.08
2018-08-13T14:10:23.379Z,1.75
2018-08-13T14:15:26.696Z,1.77
2018-08-13T14:20:29.985Z,1.70
2018-08-13T14:25:33.259Z,1.35
2018-08-13T14:30:36.563Z,1.32
2018-08-13T14:35:39.839Z,1.50
2018-08-13T14:40:43.385Z,1.60
2018-08-13T14:45:47.560Z,1.50
2018-08-13T14:50:50.835Z,1.50
2018-08-13T14:55:54.131Z,1.37
2018-08-13T15:00:57.423Z,1.60
2018-08-13T15:06:00.728Z,1.67
2018-08-13T15:11:04.043Z,1.70
2018-08-13T15:16:07.332Z,1.50
2018-08-13T15:21:10.599Z,1.80
2018-08-13T15:26:13.869Z,2.12
2018-08-13T15:31:18.008Z,1.50
2018-08-13T15:36:21.387Z,1.62
2018-08-13T15:41:24.648Z,1.87
2018-08-13T15:46:27.965Z,1.72
2018-08-13T15:51:31.270Z,2.58
2018-08-13T15:56:34.561Z,1.80
2018-08-13T16:01:37.833Z,1.47
2018-08-13T16:06:41.115Z,1.70
2018-08-13T16:11:44.116Z,5.47
2018-08-13T16:16:48.487Z,2.10
2018-08-13T16:21:51.810Z,2.07
2018-08-13T16:26:55.141Z,2.10
2018-08-13T16:32:00.869Z,2.53
2018-08-13T16:37:04.199Z,2.30
2018-08-13T16:42:07.511Z,2.60
2018-08-13T16:47:10.547Z,2.77
2018-08-13T16:52:13.636Z,3.07
2018-08-13T16:57:16.810Z,3.30
2018-08-13T17:02:20.115Z,3.30
2018-08-13T17:07:23.380Z,3.87
2018-08-13T17:12:27.799Z,5.17
2018-08-13T17:17:33.191Z,4.43
2018-08-13T17:22:36.575Z,3.97
2018-08-13T17:27:40.655Z,4.47
2018-08-13T17:32:44.387Z,4.90
2018-08-13T17:37:47.878Z,3.77
2018-08-13T17:42:51.829Z,2.73
2018-08-13T17:47:55.082Z,2.83
2018-08-13T17:52:58.343Z,4.80
2018-08-13T17:58:16.311Z,4.10
2018-08-13T18:03:19.613Z,3.97
2018-08-13T18:08:23.735Z,3.50
2018-08-13T18:13:28.379Z,4.27
2018-08-13T18:18:31.940Z,4.23
2018-08-13T18:23:35.260Z,4.00
2018-08-13T18:28:38.527Z,3.70
2018-08-13T18:33:41.792Z,3.90
2018-08-13T18:38:45.101Z,5.03
2018-08-13T18:43:48.410Z,3.93
2018-08-13T18:48:52.844Z,4.00
2018-08-13T18:53:58.259Z,3.77
2018-08-13T18:59:05.664Z,4.90
2018-08-13T19:04:10.059Z,4.77
2018-08-13T19:09:15.477Z,4.60
2018-08-13T19:14:18.741Z,5.47
2018-08-13T19:19:22.020Z,5.73
2018-08-13T19:24:25.311Z,6.20
2018-08-13T19:29:29.239Z,6.43
2018-08-13T19:34:32.690Z,6.77
2018-08-13T19:39:35.948Z,5.43
2018-08-13T19:44:39.268Z,5.33
2018-08-13T19:49:42.504Z,6.23
2018-08-13T19:54:45.839Z,5.90
2018-08-13T19:59:49.107Z,6.23
2018-08-13T20:04:52.418Z,6.07
2018-08-13T20:09:55.683Z,5.03
2018-08-13T20:14:58.954Z,5.70
2018-08-13T20:20:02.245Z,5.63
2018-08-13T20:25:05.651Z,5.33
2018-08-13T20:30:09.513Z,5.50
2018-08-13T20:35:12.815Z,6.80
2018-08-13T20:40:17.635Z,6.50
2018-08-13T20:45:23.095Z,5.87
2018-08-13T20:50:26.351Z,6.30
2018-08-13T20:55:29.979Z,5.13
2018-08-13T21:00:33.283Z,6.83
2018-08-13T21:05:36.631Z,4.03
2018-08-13T21:10:39.895Z,5.63
2018-08-13T21:15:43.171Z,4.50
2018-08-13T21:20:46.454Z,6.63
2018-08-13T21:25:49.720Z,5.90
2018-08-13T21:30:52.983Z,6.47
2018-08-13T21:35:56.253Z,7.83
2018-08-13T21:40:59.530Z,8.33
2018-08-13T21:46:02.827Z,8.10
2018-08-13T21:51:06.347Z,9.30
2018-08-13T21:56:09.649Z,10.37
2018-08-13T22:01:18.287Z,9.27
2018-08-13T22:06:21.563Z,8.33
2018-08-13T22:11:24.880Z,7.90
2018-08-13T22:16:28.178Z,9.40
2018-08-13T22:21:31.458Z,9.03
2018-08-13T22:26:34.743Z,9.17
2018-08-13T22:31:38.062Z,10.40
2018-08-13T22:36:41.358Z,8.43
2018-08-13T22:41:45.445Z,10.87
2018-08-13T22:46:49.447Z,8.70
2018-08-13T22:51:52.729Z,11.93
2018-08-13T22:56:55.999Z,15.60
2018-08-13T23:01:59.272Z,15.90
2018-08-13T23:07:02.607Z,15.13
2018-08-13T23:12:08.543Z,16.20
2018-08-13T23:17:11.859Z,19.83
2018-08-13T23:22:26.699Z,18.43
2018-08-13T23:27:29.992Z,17.60
2018-08-13T23:32:33.251Z,18.33
2018-08-13T23:37:36.530Z,18.27
2018-08-13T23:42:40.859Z,13.47
2018-08-13T23:47:44.316Z,17.73
2018-08-13T23:52:48.503Z,15.07
2018-08-13T23:57:51.795Z,13.37
